createdAt,value
2023-03-11T00:00:44.947Z,90.01
2023-03-11T00:03:15.294Z,90.32
2023-03-11T00:05:43.542Z,90.33
2023-03-11T00:08:14.601Z,91.25
2023-03-11T00:10:43.455Z,90.69
2023-03-11T00:13:13.496Z,90.49
2023-03-11T00:15:41.523Z,90.62
2023-03-11T00:18:09.202Z,90.17
2023-03-11T00:20:39.050Z,89.56
2023-03-11T00:23:08.010Z,89.73
2023-03-11T00:25:37.033Z,88.97
2023-03-11T00:28:05.475Z,88.86
2023-03-11T00:30:33.500Z,88.29
2023-03-11T00:33:00.661Z,88.77
2023-03-11T00:35:31.477Z,88.53
2023-03-11T00:38:01.770Z,88.21
2023-03-11T00:40:30.959Z,88.72
2023-03-11T00:42:59.157Z,88.91
2023-03-11T00:45:27.368Z,88.88
2023-03-11T00:47:55.310Z,87.42
2023-03-11T00:50:29.006Z,87.55
2023-03-11T00:52:56.419Z,88.62
2023-03-11T00:55:25.860Z,88.65
2023-03-11T00:57:54.835Z,89.06
2023-03-11T01:00:23.600Z,88.61
2023-03-11T01:02:52.648Z,89.49
2023-03-11T01:05:21.216Z,89.13
2023-03-11T01:07:50.644Z,90.03
2023-03-11T01:10:18.177Z,89.73
2023-03-11T01:12:46.233Z,90.02
2023-03-11T01:15:26.278Z,89.97
2023-03-11T01:17:53.346Z,90.39
2023-03-11T01:20:22.599Z,90.15
2023-03-11T01:22:50.066Z,90.20
2023-03-11T01:25:19.088Z,90.77
2023-03-11T01:27:46.784Z,90.79
2023-03-11T01:30:17.566Z,90.55
2023-03-11T01:32:44.790Z,91.07
2023-03-11T01:35:13.940Z,91.22
2023-03-11T01:37:41.086Z,91.41
2023-03-11T01:40:11.954Z,91.29
2023-03-11T01:42:39.200Z,91.48
2023-03-11T01:45:34.397Z,91.73
2023-03-11T01:48:01.568Z,91.11
2023-03-11T01:50:33.475Z,91.45
2023-03-11T01:53:00.605Z,90.98
2023-03-11T01:55:28.532Z,91.00
2023-03-11T01:57:56.159Z,91.39
2023-03-11T02:00:23.255Z,91.56
2023-03-11T02:02:54.575Z,90.96
2023-03-11T02:05:23.139Z,90.68
2023-03-11T02:07:51.827Z,90.90
2023-03-11T02:10:19.541Z,90.72
2023-03-11T02:12:47.989Z,91.14
2023-03-11T02:15:15.457Z,91.14
2023-03-11T02:17:43.366Z,91.65
2023-03-11T02:20:19.649Z,91.11
2023-03-11T02:22:47.277Z,91.07
2023-03-11T02:25:18.846Z,90.87
2023-03-11T02:27:48.135Z,91.36
2023-03-11T02:30:16.400Z,91.54
2023-03-11T02:32:44.560Z,91.44
2023-03-11T02:35:11.689Z,91.25
2023-03-11T02:37:47.133Z,91.01
2023-03-11T02:40:23.199Z,91.08
2023-03-11T02:42:52.129Z,91.38
2023-03-11T02:45:20.768Z,91.68
2023-03-11T02:47:48.381Z,91.43
2023-03-11T02:50:16.647Z,92.15
2023-03-11T02:52:43.859Z,91.69
2023-03-11T02:55:11.994Z,91.75
2023-03-11T02:57:39.074Z,91.75
2023-03-11T03:00:11.045Z,92.06
2023-03-11T03:02:38.119Z,91.62
2023-03-11T03:05:05.928Z,91.41
2023-03-11T03:07:33.004Z,92.03
2023-03-11T03:10:00.506Z,91.98
2023-03-11T03:12:27.547Z,92.17
2023-03-11T03:14:54.608Z,92.26
2023-03-11T03:17:22.446Z,91.58
2023-03-11T03:19:50.033Z,92.07
2023-03-11T03:22:17.555Z,91.91
2023-03-11T03:24:44.668Z,91.39
2023-03-11T03:27:12.292Z,92.10
2023-03-11T03:29:39.352Z,91.83
2023-03-11T03:32:07.690Z,92.27
2023-03-11T03:34:35.093Z,92.02
2023-03-11T03:37:02.174Z,91.96
2023-03-11T03:39:30.694Z,91.67
2023-03-11T03:41:57.878Z,91.29
2023-03-11T03:44:24.930Z,91.31
2023-03-11T03:46:51.995Z,91.57
2023-03-11T03:49:19.031Z,91.15
2023-03-11T03:51:46.720Z,90.95
2023-03-11T03:54:13.833Z,91.17
2023-03-11T03:56:41.291Z,90.61
2023-03-11T03:59:08.714Z,90.79
2023-03-11T04:01:35.839Z,91.13
2023-03-11T04:04:03.013Z,90.91
2023-03-11T04:06:30.291Z,90.23
2023-03-11T04:08:57.369Z,90.50
2023-03-11T04:11:24.509Z,91.06
2023-03-11T04:13:51.719Z,90.30
2023-03-11T04:16:21.023Z,90.52
2023-03-11T04:18:48.149Z,90.49
2023-03-11T04:21:15.279Z,90.32
2023-03-11T04:23:42.622Z,89.88
2023-03-11T04:26:09.701Z,90.50
2023-03-11T04:28:36.859Z,90.85
2023-03-11T04:31:04.080Z,90.51
2023-03-11T04:33:31.269Z,90.19
2023-03-11T04:35:59.253Z,90.21
2023-03-11T04:38:26.498Z,90.71
2023-03-11T04:40:53.526Z,91.05
2023-03-11T04:43:20.570Z,90.14
2023-03-11T04:45:50.327Z,90.41
2023-03-11T04:48:17.493Z,90.62
2023-03-11T04:50:45.054Z,90.18
2023-03-11T04:53:12.096Z,90.17
2023-03-11T04:55:40.022Z,89.70
2023-03-11T04:58:07.064Z,89.68
2023-03-11T05:00:34.585Z,89.82
2023-03-11T05:03:01.857Z,90.03
2023-03-11T05:05:28.929Z,89.93
2023-03-11T05:07:55.970Z,89.75
2023-03-11T05:10:23.000Z,90.18
2023-03-11T05:12:50.752Z,90.49
2023-03-11T05:15:18.633Z,89.88
2023-03-11T05:17:45.842Z,90.04
2023-03-11T05:20:15.547Z,89.94
2023-03-11T05:22:42.904Z,89.62
2023-03-11T05:25:10.266Z,89.25
2023-03-11T05:27:37.338Z,89.91
2023-03-11T05:30:04.734Z,88.97
2023-03-11T05:32:32.136Z,89.51
2023-03-11T05:34:59.228Z,89.17
2023-03-11T05:37:26.308Z,89.14
2023-03-11T05:39:53.403Z,89.52
2023-03-11T05:42:21.582Z,89.36
2023-03-11T05:44:49.150Z,89.14
2023-03-11T05:47:17.340Z,89.12
2023-03-11T05:49:44.580Z,88.85
2023-03-11T05:52:11.904Z,89.13
2023-03-11T05:54:39.242Z,88.99
2023-03-11T05:57:06.354Z,89.13
2023-03-11T05:59:35.682Z,89.33
2023-03-11T06:02:02.852Z,88.41
2023-03-11T06:04:33.543Z,88.86
2023-03-11T06:07:01.725Z,88.36
2023-03-11T06:09:28.843Z,88.13
2023-03-11T06:11:55.877Z,88.07
2023-03-11T06:14:22.941Z,88.22
2023-03-11T06:16:50.002Z,87.82
2023-03-11T06:19:17.058Z,87.31
2023-03-11T06:21:44.094Z,87.54
2023-03-11T06:24:11.193Z,87.74
2023-03-11T06:26:38.289Z,87.77
2023-03-11T06:29:08.733Z,88.07
2023-03-11T06:31:37.149Z,87.89
2023-03-11T06:34:05.483Z,88.17
2023-03-11T06:36:33.091Z,88.07
2023-03-11T06:39:00.305Z,87.82
2023-03-11T06:41:27.353Z,87.61
2023-03-11T06:43:54.545Z,87.80
2023-03-11T06:46:23.158Z,88.09
2023-03-11T06:48:52.850Z,87.91
2023-03-11T06:51:21.035Z,87.98
2023-03-11T06:53:50.144Z,87.84
2023-03-11T06:56:17.271Z,87.71
2023-03-11T06:58:44.683Z,88.26
2023-03-11T07:01:15.461Z,87.43
2023-03-11T07:03:42.978Z,87.54
2023-03-11T07:06:15.403Z,88.11
2023-03-11T07:08:42.570Z,88.40
2023-03-11T07:11:12.917Z,88.41
2023-03-11T07:13:40.444Z,88.43
2023-03-11T07:16:12.942Z,88.02
2023-03-11T07:18:40.103Z,88.08
2023-03-11T07:21:09.090Z,87.74
2023-03-11T07:23:36.427Z,87.82
2023-03-11T07:26:04.917Z,87.58
2023-03-11T07:28:32.072Z,88.08
2023-03-11T07:30:59.195Z,87.65
2023-03-11T07:33:26.278Z,87.90
2023-03-11T07:35:53.379Z,87.61
2023-03-11T07:38:21.043Z,87.85
2023-03-11T07:40:48.119Z,87.75
2023-03-11T07:43:15.209Z,87.20
2023-03-11T07:45:42.254Z,86.89
2023-03-11T07:48:09.365Z,87.23
2023-03-11T07:50:36.462Z,87.03
2023-03-11T07:53:03.537Z,87.73
2023-03-11T07:55:30.816Z,87.42
2023-03-11T07:57:57.917Z,87.35
2023-03-11T08:00:25.032Z,87.20
2023-03-11T08:02:52.349Z,87.41
2023-03-11T08:05:21.103Z,87.38
2023-03-11T08:07:48.163Z,86.67
2023-03-11T08:10:15.415Z,86.98
2023-03-11T08:12:42.454Z,87.15
2023-03-11T08:15:10.071Z,86.47
2023-03-11T08:17:37.197Z,87.10
2023-03-11T08:20:05.117Z,87.51
2023-03-11T08:22:32.228Z,87.91
2023-03-11T08:24:59.282Z,87.90
2023-03-11T08:27:28.897Z,88.05
2023-03-11T08:29:57.164Z,87.54
2023-03-11T08:32:24.431Z,88.49
2023-03-11T08:34:51.578Z,88.33
2023-03-11T08:37:18.839Z,88.17
2023-03-11T08:39:45.901Z,88.25
2023-03-11T08:42:13.343Z,88.92
2023-03-11T08:44:40.493Z,88.43
2023-03-11T08:47:07.714Z,88.04
2023-03-11T08:49:35.115Z,87.88
2023-03-11T08:52:02.416Z,87.95
2023-03-11T08:54:29.743Z,88.27
2023-03-11T08:56:57.045Z,87.84
2023-03-11T08:59:24.212Z,87.95
2023-03-11T09:01:51.295Z,87.98
2023-03-11T09:04:18.328Z,87.48
2023-03-11T09:06:45.593Z,88.03
2023-03-11T09:09:12.633Z,88.07
2023-03-11T09:11:40.812Z,87.50
2023-03-11T09:14:10.552Z,87.45
2023-03-11T09:16:37.585Z,87.32
2023-03-11T09:19:07.237Z,87.52
2023-03-11T09:21:35.005Z,88.02
2023-03-11T09:24:04.218Z,87.97
2023-03-11T09:26:31.930Z,88.44
2023-03-11T09:29:00.002Z,87.97
2023-03-11T09:31:27.080Z,86.69
2023-03-11T09:33:55.604Z,87.07
2023-03-11T09:36:22.941Z,86.63
2023-03-11T09:38:50.003Z,87.09
2023-03-11T09:41:17.739Z,86.83
2023-03-11T09:44:03.868Z,87.29
2023-03-11T09:46:49.790Z,86.73
2023-03-11T09:49:29.496Z,86.89
2023-03-11T09:52:01.191Z,87.17
2023-03-11T09:54:30.613Z,86.95
2023-03-11T09:56:57.794Z,86.56
2023-03-11T09:59:31.646Z,86.41
2023-03-11T10:01:59.510Z,86.85
2023-03-11T10:04:29.236Z,86.90
2023-03-11T10:06:56.996Z,86.81
2023-03-11T10:09:34.256Z,86.04
2023-03-11T10:12:17.794Z,86.88
2023-03-11T10:15:03.290Z,86.17
2023-03-11T10:17:52.587Z,85.90
2023-03-11T10:20:23.531Z,85.83
2023-03-11T10:23:00.166Z,85.91
2023-03-11T10:25:54.437Z,85.71
2023-03-11T10:28:26.236Z,86.02
2023-03-11T10:30:57.213Z,85.47
2023-03-11T10:33:29.579Z,85.86
2023-03-11T10:35:58.994Z,85.71
2023-03-11T10:38:33.722Z,86.02
2023-03-11T10:41:05.908Z,85.68
2023-03-11T10:43:39.523Z,84.80
2023-03-11T10:46:16.937Z,85.66
2023-03-11T10:48:44.047Z,84.47
2023-03-11T10:51:14.003Z,84.07
2023-03-11T10:53:50.890Z,84.71
2023-03-11T10:56:30.979Z,84.17
2023-03-11T10:58:59.805Z,84.43
2023-03-11T11:01:29.002Z,83.78
2023-03-11T11:03:57.934Z,82.79
2023-03-11T11:06:29.123Z,83.93
2023-03-11T11:09:15.117Z,82.22
2023-03-11T11:11:43.083Z,82.83
2023-03-11T11:14:10.392Z,83.03
2023-03-11T11:16:37.814Z,83.37
2023-03-11T11:19:09.759Z,82.66
2023-03-11T11:21:41.449Z,83.13
2023-03-11T11:24:24.399Z,83.63
2023-03-11T11:27:04.698Z,83.84
2023-03-11T11:29:32.010Z,84.42
2023-03-11T11:32:18.813Z,84.21
2023-03-11T11:35:06.928Z,84.84
2023-03-11T11:37:36.141Z,84.13
2023-03-11T11:40:14.035Z,83.91
2023-03-11T11:43:03.695Z,83.90
2023-03-11T11:45:37.346Z,83.22
2023-03-11T11:48:23.060Z,83.18
2023-03-11T11:50:57.307Z,84.21
2023-03-11T11:53:50.020Z,83.83
2023-03-11T11:56:17.069Z,84.50
2023-03-11T11:58:44.087Z,84.60
2023-03-11T12:01:21.903Z,84.82
2023-03-11T12:04:13.883Z,84.05
2023-03-11T12:07:02.362Z,84.64
2023-03-11T12:09:48.955Z,84.14
2023-03-11T12:12:42.390Z,83.43
2023-03-11T12:15:24.430Z,84.70
2023-03-11T12:17:53.080Z,84.42
2023-03-11T12:20:32.669Z,83.39
2023-03-11T12:23:16.631Z,83.77
2023-03-11T12:26:03.384Z,83.13
2023-03-11T12:28:39.663Z,82.17
2023-03-11T12:31:10.062Z,80.66
2023-03-11T12:33:43.472Z,80.55
2023-03-11T12:36:23.625Z,81.43
2023-03-11T12:38:51.396Z,81.08
2023-03-11T12:41:27.519Z,81.34
2023-03-11T12:43:59.978Z,81.49
2023-03-11T12:46:55.582Z,81.03
2023-03-11T12:49:27.543Z,80.06
2023-03-11T12:52:16.104Z,80.33
2023-03-11T12:55:03.860Z,80.24
2023-03-11T12:57:37.655Z,78.84
2023-03-11T13:00:23.124Z,80.00
2023-03-11T13:03:47.846Z,79.54
2023-03-11T13:06:45.621Z,79.60
2023-03-11T13:09:16.975Z,79.43
2023-03-11T13:11:46.264Z,79.82
2023-03-11T13:14:29.341Z,80.05
2023-03-11T13:17:16.932Z,80.95
2023-03-11T13:19:49.358Z,82.53
2023-03-11T13:22:43.406Z,82.84
2023-03-11T13:25:29.965Z,82.14
2023-03-11T13:28:06.931Z,82.22
2023-03-11T13:30:39.840Z,82.65
2023-03-11T13:33:25.020Z,82.39
2023-03-11T13:36:13.544Z,82.53
2023-03-11T13:39:00.998Z,81.61
2023-03-11T13:41:32.031Z,82.04
2023-03-11T13:44:13.645Z,82.88
2023-03-11T13:46:42.440Z,82.71
2023-03-11T13:49:19.843Z,81.69
2023-03-11T13:51:47.622Z,82.81
2023-03-11T13:54:20.260Z,82.29
2023-03-11T13:56:51.138Z,82.43
2023-03-11T13:59:28.805Z,82.04
2023-03-11T14:01:58.731Z,81.33
2023-03-11T14:04:30.792Z,81.63
2023-03-11T14:06:58.785Z,82.66
2023-03-11T14:09:28.324Z,81.44
2023-03-11T14:12:07.723Z,82.48
2023-03-11T14:14:43.774Z,83.00
2023-03-11T14:17:18.335Z,82.67
2023-03-11T14:20:04.763Z,82.92
2023-03-11T14:22:32.282Z,83.18
2023-03-11T14:25:02.163Z,82.71
2023-03-11T14:27:30.246Z,82.19
2023-03-11T14:29:57.361Z,81.65
2023-03-11T14:32:35.500Z,81.35
2023-03-11T14:35:17.044Z,81.86
2023-03-11T14:37:44.344Z,81.99
2023-03-11T14:40:27.066Z,82.04
2023-03-11T14:42:56.300Z,81.97
2023-03-11T14:45:25.380Z,81.42
2023-03-11T14:48:06.750Z,82.75
2023-03-11T14:50:35.226Z,81.90
2023-03-11T14:53:09.306Z,80.96
2023-03-11T14:55:40.451Z,81.16
2023-03-11T14:58:17.822Z,81.83
2023-03-11T15:01:14.643Z,82.50
2023-03-11T15:03:49.259Z,80.59
2023-03-11T15:06:18.681Z,81.30
2023-03-11T15:08:48.031Z,81.15
2023-03-11T15:11:15.402Z,80.70
2023-03-11T15:13:44.194Z,80.18
2023-03-11T15:16:40.982Z,80.54
2023-03-11T15:19:43.429Z,81.01
2023-03-11T15:22:19.537Z,80.63
2023-03-11T15:24:50.741Z,81.26
2023-03-11T15:27:32.826Z,82.05
2023-03-11T15:30:01.262Z,82.38
2023-03-11T15:32:39.724Z,82.06
2023-03-11T15:35:12.791Z,81.96
2023-03-11T15:37:41.721Z,81.39
2023-03-11T15:40:42.445Z,81.38
2023-03-11T15:43:14.504Z,81.56
2023-03-11T15:45:42.426Z,81.51
2023-03-11T15:48:13.214Z,82.17
2023-03-11T15:50:53.823Z,82.36
2023-03-11T15:53:22.700Z,82.31
2023-03-11T15:55:50.228Z,82.62
2023-03-11T15:58:18.850Z,82.69
2023-03-11T16:00:48.566Z,82.56
2023-03-11T16:03:15.992Z,82.35
2023-03-11T16:05:43.116Z,82.75
2023-03-11T16:08:10.226Z,82.79
2023-03-11T16:10:37.523Z,83.03
2023-03-11T16:13:04.623Z,82.47
2023-03-11T16:15:37.789Z,81.68
2023-03-11T16:18:07.455Z,81.65
2023-03-11T16:21:03.003Z,82.43
2023-03-11T16:23:44.790Z,82.18
2023-03-11T16:26:19.738Z,81.98
2023-03-11T16:28:46.815Z,81.98
2023-03-11T16:31:14.586Z,82.12
2023-03-11T16:33:41.637Z,82.11
2023-03-11T16:36:10.397Z,80.90
2023-03-11T16:38:49.028Z,81.72
2023-03-11T16:41:16.821Z,81.64
2023-03-11T16:43:44.400Z,82.40
2023-03-11T16:46:11.480Z,82.50
2023-03-11T16:48:38.630Z,81.99
2023-03-11T16:51:06.162Z,81.77
2023-03-11T16:53:33.269Z,81.33
2023-03-11T16:56:00.358Z,82.57
2023-03-11T16:58:27.652Z,81.83
2023-03-11T17:00:54.795Z,82.23
2023-03-11T17:03:22.275Z,82.67
2023-03-11T17:05:49.484Z,82.04
2023-03-11T17:08:18.218Z,81.63
2023-03-11T17:10:45.919Z,82.04
2023-03-11T17:13:14.002Z,83.16
2023-03-11T17:15:44.411Z,82.51
2023-03-11T17:18:11.843Z,82.10
2023-03-11T17:20:40.388Z,82.29
2023-03-11T17:23:07.477Z,83.31
2023-03-11T17:25:34.634Z,82.57
2023-03-11T17:28:01.709Z,83.23
2023-03-11T17:30:36.944Z,82.87
2023-03-11T17:33:04.733Z,82.38
2023-03-11T17:35:31.968Z,82.48
2023-03-11T17:37:59.266Z,82.89
2023-03-11T17:40:27.224Z,82.81
2023-03-11T17:42:54.268Z,82.84
2023-03-11T17:45:21.294Z,82.63
2023-03-11T17:47:48.354Z,82.39
2023-03-11T17:50:15.494Z,82.37
2023-03-11T17:52:42.908Z,83.29
2023-03-11T17:55:10.175Z,83.63
2023-03-11T17:57:44.952Z,83.40
2023-03-11T18:00:15.634Z,83.19
2023-03-11T18:02:42.712Z,83.22
2023-03-11T18:05:10.259Z,83.93
2023-03-11T18:07:47.010Z,83.11
2023-03-11T18:10:15.140Z,82.70
2023-03-11T18:12:46.355Z,82.35
2023-03-11T18:15:20.392Z,82.66
2023-03-11T18:17:48.114Z,82.39
2023-03-11T18:20:15.956Z,82.85
2023-03-11T18:22:46.635Z,82.37
2023-03-11T18:25:14.496Z,81.44
2023-03-11T18:27:41.618Z,81.17
2023-03-11T18:30:11.129Z,82.19
2023-03-11T18:32:38.526Z,82.40
2023-03-11T18:35:06.037Z,81.74
2023-03-11T18:37:33.659Z,81.93
2023-03-11T18:40:00.769Z,82.34
2023-03-11T18:42:28.239Z,81.10
2023-03-11T18:44:55.285Z,81.30
2023-03-11T18:47:23.451Z,80.23
2023-03-11T18:49:50.556Z,80.36
2023-03-11T18:52:17.662Z,81.19
2023-03-11T18:54:44.790Z,80.90
2023-03-11T18:57:12.135Z,80.66
2023-03-11T18:59:39.209Z,80.26
2023-03-11T19:02:06.496Z,81.08
2023-03-11T19:04:33.648Z,81.09
2023-03-11T19:07:00.709Z,79.93
2023-03-11T19:09:27.913Z,80.01
2023-03-11T19:11:54.959Z,80.47
2023-03-11T19:14:22.093Z,80.60
2023-03-11T19:16:50.339Z,80.15
2023-03-11T19:19:18.172Z,80.59
2023-03-11T19:21:47.524Z,79.97
2023-03-11T19:24:15.309Z,80.23
2023-03-11T19:26:45.431Z,80.91
2023-03-11T19:29:14.093Z,79.29
2023-03-11T19:31:43.689Z,79.51
2023-03-11T19:34:11.435Z,80.49
2023-03-11T19:36:39.423Z,79.16
2023-03-11T19:39:06.988Z,80.67
2023-03-11T19:41:34.260Z,79.61
2023-03-11T19:44:03.971Z,80.01
2023-03-11T19:46:34.464Z,79.68
2023-03-11T19:49:02.248Z,78.66
2023-03-11T19:51:38.781Z,79.00
2023-03-11T19:54:16.130Z,79.13
2023-03-11T19:56:43.737Z,79.50
2023-03-11T19:59:10.902Z,80.46
2023-03-11T20:01:37.945Z,80.50
2023-03-11T20:04:05.427Z,80.92
2023-03-11T20:06:32.550Z,81.32
2023-03-11T20:08:59.769Z,81.10
2023-03-11T20:11:27.149Z,81.74
2023-03-11T20:13:54.478Z,81.35
2023-03-11T20:16:22.560Z,80.91
2023-03-11T20:18:50.689Z,80.53
2023-03-11T20:21:18.168Z,80.61
2023-03-11T20:23:45.254Z,81.14
2023-03-11T20:26:13.893Z,80.13
2023-03-11T20:28:41.281Z,80.11
2023-03-11T20:31:17.161Z,81.07
2023-03-11T20:33:44.772Z,79.93
2023-03-11T20:36:16.003Z,80.75
2023-03-11T20:38:43.627Z,81.36
2023-03-11T20:41:10.843Z,81.73
2023-03-11T20:43:38.382Z,82.46
2023-03-11T20:46:06.519Z,81.74
2023-03-11T20:48:35.774Z,81.80
2023-03-11T20:51:04.920Z,81.05
2023-03-11T20:53:32.384Z,80.44
2023-03-11T20:56:05.119Z,80.23
2023-03-11T20:58:32.283Z,81.22
2023-03-11T21:00:59.422Z,81.69
2023-03-11T21:03:26.602Z,81.71
2023-03-11T21:05:53.853Z,81.64
2023-03-11T21:08:21.238Z,82.34
2023-03-11T21:10:48.390Z,81.17
2023-03-11T21:13:15.695Z,80.93
2023-03-11T21:15:42.841Z,80.96
2023-03-11T21:18:10.359Z,81.51
2023-03-11T21:20:37.398Z,81.01
2023-03-11T21:23:05.047Z,81.30
2023-03-11T21:25:32.181Z,81.63
2023-03-11T21:27:59.243Z,81.91
2023-03-11T21:30:26.386Z,80.70
2023-03-11T21:32:53.842Z,80.02
2023-03-11T21:35:21.193Z,80.73
2023-03-11T21:37:48.421Z,80.23
2023-03-11T21:40:15.639Z,80.03
2023-03-11T21:42:42.879Z,80.14
2023-03-11T21:45:10.732Z,79.73
2023-03-11T21:47:38.116Z,79.90
2023-03-11T21:50:06.383Z,79.68
2023-03-11T21:52:34.628Z,79.94
2023-03-11T21:55:01.770Z,79.45
2023-03-11T21:57:28.801Z,80.10
2023-03-11T21:59:55.873Z,79.81
2023-03-11T22:02:23.053Z,79.44
2023-03-11T22:04:50.837Z,80.03
2023-03-11T22:07:18.172Z,79.73
2023-03-11T22:09:45.451Z,79.93
2023-03-11T22:12:12.543Z,79.30
2023-03-11T22:14:39.797Z,78.41
2023-03-11T22:17:06.893Z,79.60
2023-03-11T22:19:34.168Z,79.29
2023-03-11T22:22:01.286Z,79.17
2023-03-11T22:24:28.413Z,79.30
2023-03-11T22:26:55.730Z,79.12
2023-03-11T22:29:22.854Z,78.91
2023-03-11T22:31:49.970Z,78.58
2023-03-11T22:34:17.835Z,79.11
2023-03-11T22:36:44.900Z,79.63
2023-03-11T22:39:12.003Z,79.37
2023-03-11T22:41:39.791Z,78.61
2023-03-11T22:44:06.864Z,78.90
2023-03-11T22:46:34.106Z,79.15
2023-03-11T22:49:01.193Z,79.34
2023-03-11T22:51:28.428Z,79.60
2023-03-11T22:53:55.928Z,78.84
2023-03-11T22:56:23.089Z,78.54
2023-03-11T22:58:50.153Z,79.01
2023-03-11T23:01:17.467Z,78.05
2023-03-11T23:03:45.104Z,79.19
2023-03-11T23:06:15.501Z,78.77
2023-03-11T23:08:43.368Z,78.65
2023-03-11T23:11:13.301Z,79.22
2023-03-11T23:13:41.263Z,79.01
2023-03-11T23:16:21.970Z,79.33
2023-03-11T23:18:51.444Z,79.42
2023-03-11T23:21:22.490Z,78.97
2023-03-11T23:23:49.680Z,79.10
2023-03-11T23:26:17.133Z,79.20
2023-03-11T23:28:45.683Z,79.78
2023-03-11T23:31:14.550Z,79.26
2023-03-11T23:33:41.894Z,79.17
2023-03-11T23:36:11.524Z,78.82
2023-03-11T23:38:38.963Z,79.39
2023-03-11T23:41:11.407Z,78.99
2023-03-11T23:43:39.015Z,79.13
2023-03-11T23:46:06.263Z,79.59
2023-03-11T23:48:34.349Z,79.47
2023-03-11T23:51:01.392Z,79.29
2023-03-11T23:53:28.696Z,80.04
2023-03-11T23:55:55.759Z,79.05
2023-03-11T23:58:23.115Z,79.44
